Ride Results

Kimberley Fire Brigade Challenge (08-05-2010)
Ride distance: 80.0 km

Outcomes - Kimberley Fire Brigade Challenge (08-05-2010)
Division No. of Entries Retired / DNE Completed Withdrawn Ineligible V/O Percentage Completed
HW 10 - 8 1 - 1 80.00%
MW 14 - 11 1 - 2 78.57%
LW 17 - 15 - - 2 88.24%
JN 14 - 11 - - 3 78.57%
Totals 55 - 45 2 - 8 81.82%
Results - Kimberley Fire Brigade Challenge (08-05-2010)
No. Rider Horse Place Time Leg Speeds Total
Km/Hr
H/R bpm
Heavyweight
137 John Shoobridge Fantasia 1 (BC) 5:26:00 15.9, 13.6 14.72 35, 42, 45 (Avg:43)
94 Natalie Humphries Enderby Rakaia 2 5:46:00 15.7, 12.3 13.87 34, 48, 52 (Avg:50)
93 Jeremy Ford Diamond Tail Desert Opal 3 6:33:00 13.4, 11.1 12.21 34, 46, 60 (Avg:53)
C Noel Lockhart Ralvon Splendour 4 6:42:00 12.4, 11.4 11.94 31, 38, 47 (Avg:42)
103 Christopher Mahoney Anglesea Trafford 5 6:48:00 12.9, 10.7 11.76 40, 48, 49 (Avg:48)
199 Dennis Foley Jnr Jack 6 7:09:00 13.4, 9.5 11.19 37, 46, 48 (Avg:47)
194 Robby Walsh Tierview El Mishkatarn 7 7:24:00 12.0, 9.7 10.81 39, 49, 55 (Avg:52)
141 Tim Potter Cape Haven Kings Gift 8 8:07:00 10.9, 8.9 9.86 40, 45, 51 (Avg:48)
171 Craig Wall Undurra Braveheart Lame L2 0:00:00 13.3, 11.9 - 33, 42, 48 (Avg:45)
18 Sheleah Astell Davlyn Park Zena Withdrawn L1 0:00:00 - - 39, 47 (Avg:47)
Middleweight
88 Anthony Bloom Kerribea 1 (BC) 5:46:00 15.7, 12.3 13.87 35, 45, 50 (Avg:47)
119 Max Lockhart Imaj Hezitation 2 6:31:00 12.0, 12.4 12.28 38, 45, 48 (Avg:46)
22 Helen Astell Sunny 3 6:42:01 12.6, 11.3 11.94 37, 52, 55 (Avg:53)
24 Kylie Williams T.K 3 6:42:01 12.8, 11.1 11.94 42, 50, 55 (Avg:52)
176 Greg Burford Wild 5 6:47:00 13.4, 10.4 11.79 30, 49, 49 (Avg:49)
4 Helen Bowkett Jordanvale Snowbird 6 6:48:00 12.3, 11.2 11.76 33, 41, 54 (Avg:47)
132 Carolyn Foley-Jones Badgerlyn Zack 7 6:50:00 12.4, 11.0 11.71 40, 47, 53 (Avg:50)
136 Kaye Mitchell Beer Street Takone 8 6:50:04 11.9, 11.4 11.71 47, 40, 49 (Avg:44)
72 Vivienne Lawson Valley Springs Saarina 9 7:08:00 12.0, 10.4 11.21 29, 39, 47 (Avg:43)
192 Katrin Overdijk Bold Blue 10 7:33:00 11.8, 9.5 10.60 36, 44, 54 (Avg:49)
197 Erin Gadsby Nadar 11 8:07:00 10.9, 8.9 9.86 39, 46, 51 (Avg:48)
169 Brent Marshall Performance Park Riverdance Lame L2 0:00:00 12.9, 11.1 - 38, 49, 57 (Avg:53)
180 Nicole Ford Highland View Stockman Withdrawn L1 0:00:00 - - 33, 43 (Avg:43)
162 Linda Pilgrim Lauralyn Callissa Heart Rate L1 0:00:00 10.6 - 44, 62 (Avg:62)
Lightweight
51 Debbie Leary Kasdell Reprieve 1 (BC) 4:57:00 18.4, 14.3 16.16 34, 43, 53 (Avg:48)
205 Kristy Matheson Valley Park My Solotaire 2 5:47:00 17.0, 11.6 13.83 30, 41, 50 (Avg:45)
71 Vanessa Hoare Saaremaa Park Safi Latif 3 5:47:01 17.0, 11.6 13.83 32, 52, 57 (Avg:54)
179 Debbie Grull Lauralyn Notorious 4 6:04:00 14.9, 11.7 13.19 32, 47, 46 (Avg:46)
37 Jen Clingly Imaj Zamir 5 6:33:00 13.4, 11.1 12.21 32, 38, 49 (Avg:43)
77 Alison Lockhart The Hobbit 6 6:42:03 12.4, 11.4 11.94 35, 41, 47 (Avg:44)
21 Karen Quinn Harmere Burkhan 6 6:42:03 12.8, 11.1 11.94 37, 44, 48 (Avg:46)
190 Linda Blanchard Harpo Blues 8 7:08:40 12.0, 10.4 11.20 29, 40, 47 (Avg:43)
12 Anita Hutchins Sandine Artic Express 9 7:24:00 11.8, 9.9 10.81 30, 38, 41 (Avg:39)
106 Diana Carroll She's A Pearl 10 7:32:00 10.9, 10.3 10.62 37, 49, 48 (Avg:48)
16 Margaret Richardson Bold Belle 11 7:33:00 11.8, 9.5 10.60 34, 39, 48 (Avg:43)
1 Ann Richards Bullio Primadonna 12 7:35:00 10.9, 10.2 10.55 45, 44, 52 (Avg:48)
148 Jeremy Robertson Clearwater Cascade 13 7:35:01 10.9, 10.2 10.55 32, 43, 44 (Avg:43)
193 Adam Dolman Blackwood Springs Jamillah 14 8:15:00 11.3, 8.4 9.70 33, 49, 54 (Avg:51)
145 Vanessa Burton Najah 15 8:15:01 11.3, 8.4 9.70 32, 41, 52 (Avg:46)
184 Janelle McLeod Nismo's Magician Heart Rate L2 0:00:00 12.8, 11.1 - 40, 53, 64 (Avg:58)
8 Jean Treloar Glenleigh Jazabell Lame L1 0:00:00 12.9 - 39, 50 (Avg:50)
Junior
79 Shannon Hill Glendhu Judah 1 (BC) 5:23:00 17.1, 13.1 14.86 31, 46, 49 (Avg:47)
78 Brad Hill Aloha Eros 2 6:31:04 12.4, 12.0 12.27 36, 43, 51 (Avg:47)
107 Samantha Sward Ausden Anastacia 3 6:34:00 12.0, 12.3 12.18 36, 0, 50 (Avg:25)
92 Blaine Astell Splitters Creek Pompeii 4 6:42:02 12.8, 11.1 11.94 35, 44, 58 (Avg:51)
203 Ellie Woodhouse Piper 4 6:42:02 12.8, 11.1 11.94 37, 48, 54 (Avg:51)
159 Luke Plane Victoria Park Za-Avior 6 6:50:00 12.4, 11.0 11.71 46, 48, 54 (Avg:51)
126 Alice Mitchell Krystal Creek Karisma 7 6:50:40 11.9, 11.3 11.69 34, 46, 48 (Avg:47)
127 Jaz Hutchins Walford Jaydjay 8 7:24:00 11.8, 9.9 10.81 35, 42, 50 (Avg:46)
311 Grace Huxtable Kaywana Mystique 8 7:24:00 11.8, 9.9 10.81 40, 51, 56 (Avg:53)
129 Kirsty Sward Neilly Woodsong Kling-On 10 7:32:00 10.9, 10.3 10.62 40, 45, 55 (Avg:50)
204 Amelia Napier Dee Zyne Hot Chocolate 11 7:37:00 10.6, 10.3 10.50 34, 40, 46 (Avg:43)
174 Stuart Becker Dial Range Saphira Lame L2 0:00:00 12.9, 11.7 - 34, 44, 57 (Avg:50)
125 Brooke Brown-Cordell Yondover Ridge Mojo Lame L2 0:00:00 20.8, 20.1 - 32, 44, 50 (Avg:47)
30 Emily Shadbolt Sharabhan Sashmah Lame L1 0:00:00 10.6 - 34, 44 (Avg:44)